Main page
METAR-TAF:

METAR-TAF

Airports :

Pécs-Pogány International Airport

Pécs, Hungary

latitude: 46-06N, longitude: 018-14E, elevation: 201 m

Current weather observation

The report was made 38 minutes ago, at 13:45 UTC
Wind 7 kt from the West/Southwest
Temperature 10°C
Humidity 40%
Pressure 1030 hPa
Visibility 10 km or more
no clouds below 1500 m and no cumulonimbus

METAR: LHPP 221345Z 24007KT CAVOK 10/M03 Q1030

Time: 15:23 (14:23 UTC)

Forecast

The report was made 3 hours and 8 minutes ago, at 11:15 UTC
Forecast valid from 22 at 12 UTC to 22 at 21 UTC
Wind 6 kt from the West/Southwest
Visibility 10 km or more
no clouds below 1500 m and no cumulonimbus

TAF: LHPP 221115Z 2212/2221 24006KT CAVOK

Weather observations and forecasts of more than 4000 airports (METAR and TAF reports).

The available stations are represented by yellow and red dots on the map.

Hover mouse over dot to see the name of the station.

Then click to see weather observations and forecasts.

To change the map : click on the green buttons with a black cross to zoom in, on the green button with a dash to zoom out, or on the green arrows for adjacent maps.


METAR-TAF: